Latest Weather Observations for Truscott

IDW60801

Issued at 7:32 am WST Sunday 30 August 2015 (issued every 30 minutes, with the page automatically refreshed every 10 minutes)

About weather observations | Map of weather stations | Latest weather observations for WA | Other Formats
Station Details ID: 001020 Name: TRUSCOTT Lat: -14.09 Lon: 126.39 Height: 51.0 m
Data from the previous 72 hours. | See also: Recent months at Truscott
Date/Time
WST
Temp
°C
App
Temp
°C
Dew
Point
Rel
Hum
%
Delta-T
°C
Wind Press
QNH
hPa
Press
MSL
hPa
Rain
since 9 am
mm
Dir
 
Spd
km/h
Gust
km/h
Spd
kts
Gust
kts
30/07:30am 27.0 28.5 19.0 61 5.1 S 9 11 5 6 1016.0 - 0.0
30/07:00am 26.0 28.4 20.0 69 3.9 SSE 7 7 4 4 1015.0 - 0.0
30/06:30am 24.0 26.9 21.0 83 2.0 S 7 - 4 - 1015.0 - 0.0
30/06:00am 22.1 25.0 21.1 94 0.7 S 7 - 4 - 1015.0 1014.6 0.0
30/05:30am 22.0 24.9 21.0 94 0.7 S 7 - 4 - 1014.0 - 0.0
30/05:00am 22.0 24.9 21.0 94 0.7 S 7 - 4 - 1014.0 - 0.0
30/04:30am 23.0 25.9 21.0 88 1.3 SSW 7 - 4 - 1014.0 - 0.0
30/04:00am 23.0 26.0 22.0 94 0.7 SSW 9 - 5 - 1014.0 - 0.0
30/03:30am 23.0 26.0 22.0 94 0.7 SSW 9 - 5 - 1013.0 - 0.0
30/03:00am 23.5 26.5 21.9 91 1.1 SW 9 - 5 - 1013.0 1013.2 0.0
30/02:30am 24.0 27.0 22.0 88 1.3 SSW 9 - 5 - 1013.0 - 0.0
30/02:00am 24.0 27.4 22.0 88 1.3 SW 7 - 4 - 1013.0 - 0.0
30/01:30am 24.0 27.6 22.0 88 1.3 SSW 6 - 3 - 1014.0 - 0.0
30/01:17am 24.0 27.6 22.0 88 1.3 SSW 6 - 3 - 1014.0 - 0.0
30/01:00am 24.0 27.4 22.0 88 1.3 SSW 7 - 4 - 1014.0 - 0.0
30/12:30am 24.0 27.4 22.0 88 1.3 SSW 7 - 4 - 1014.0 - 0.0
30/12:00am 24.3 27.7 22.0 87 1.5 WSW 7 - 4 - 1015.0 1014.7 0.0
 
Date/Time
WST
Temp
°C
App
Temp
°C
Dew
Point
Rel
Hum
%
Delta-T
°C
Wind Press
QNH
hPa
Press
MSL
hPa
Rain
since 9 am
mm
Dir
 
Spd
km/h
Gust
km/h
Spd
kts
Gust
kts
29/11:30pm 24.0 27.4 22.0 88 1.3 WSW 7 - 4 - 1015.0 - 0.0
29/11:00pm 24.0 27.4 22.0 88 1.3 WSW 7 - 4 - 1015.0 - 0.0
29/10:30pm 24.0 28.7 22.0 88 1.3 CALM 0 - 0 - 1015.0 - 0.0
29/10:00pm 24.0 28.7 22.0 88 1.3 CALM 0 - 0 - 1015.0 - 0.0
29/09:30pm 24.0 28.0 22.0 88 1.3 WNW 4 - 2 - 1015.0 - 0.0
29/09:00pm 24.6 29.6 22.5 88 1.4 CALM 0 - 0 - 1016.0 1015.6 0.0
29/08:30pm 25.0 29.7 22.0 83 2.0 CALM 0 - 0 - 1015.0 - 0.0
29/08:00pm 25.0 28.6 22.0 83 2.0 N 6 - 3 - 1015.0 - 0.0
29/07:30pm 25.0 29.0 22.0 83 2.0 N 4 - 2 - 1015.0 - 0.0
29/07:00pm 25.0 28.6 22.0 83 2.0 NNW 6 - 3 - 1015.0 - 0.0
29/06:30pm 25.0 28.4 22.0 83 2.0 NW 7 - 4 - 1014.0 - 0.0
29/06:00pm 26.0 29.0 22.0 78 2.7 NNW 9 - 5 - 1014.0 - 0.0
29/05:30pm 26.0 28.6 22.0 78 2.7 N 11 - 6 - 1013.0 - 0.0
29/05:00pm 27.0 28.4 21.0 69 4.0 N 15 - 8 - 1013.0 - 0.0
29/04:30pm 27.0 27.9 20.0 65 4.6 N 15 - 8 - 1013.0 - 0.0
29/04:00pm 28.0 28.4 19.0 58 5.8 N 15 - 8 - 1012.0 - 0.0
29/03:30pm 29.0 29.0 18.0 51 7.0 N 15 - 8 - 1012.0 - 0.0
29/03:00pm 29.6 29.7 18.4 51 7.2 N 15 - 8 - 1012.0 1012.2 0.0
29/02:30pm 29.0 29.5 20.0 58 5.9 NNW 17 - 9 - 1012.0 - 0.0
29/02:00pm 29.0 29.5 20.0 58 5.9 NNW 17 - 9 - 1013.0 - 0.0
29/01:30pm 30.0 29.0 18.0 48 7.7 NNW 20 - 11 - 1013.0 - 0.0
29/01:00pm 30.0 29.0 18.0 48 7.7 N 20 - 11 - 1014.0 - 0.0
29/12:30pm 30.0 29.2 17.0 45 8.2 NNW 17 - 9 - 1014.0 - 0.0
29/12:00pm 30.6 30.6 18.0 47 8.1 N 15 - 8 - 1014.0 1014.4 0.0
29/11:30am 30.0 30.0 19.0 51 7.1 N 17 - 9 - 1015.0 - 0.0
29/11:00am 30.0 30.0 19.0 51 7.1 NNW 17 - 9 - 1015.0 - 0.0
29/10:30am 31.0 31.8 19.0 48 7.8 NNW 13 - 7 - 1016.0 - 0.0
29/10:00am 29.0 29.7 18.0 51 7.0 N 11 - 6 - 1016.0 - 0.0
29/09:30am 30.0 31.5 18.0 48 7.7 NNW 7 - 4 - 1016.0 - 0.0
29/09:00am 29.2 30.8 18.3 51 7.0 SSW 7 - 4 - 1016.0 1016.5 0.0
29/08:30am 28.0 28.3 18.0 54 6.4 SSW 13 - 7 - 1016.0 - 0.0
29/08:00am 27.0 28.2 19.0 61 5.1 SSW 11 - 6 - 1016.0 - 0.0
29/07:30am 26.0 26.4 19.0 65 4.5 SSW 15 - 8 - 1016.0 - 0.0
29/07:00am 25.0 26.6 20.0 74 3.2 SSW 11 - 6 - 1015.0 - 0.0
29/06:30am 24.0 26.4 20.0 78 2.6 SW 7 - 4 - 1015.0 - 0.0
29/06:00am 22.6 24.9 19.9 85 1.7 SW 7 - 4 - 1015.0 1015.0 0.0
29/05:30am 22.0 24.9 19.0 83 1.9 SSW 2 - 1 - 1015.0 - 0.0
29/05:00am 23.0 25.4 20.0 83 1.9 SSW 7 - 4 - 1014.0 - 0.0
29/04:30am 23.0 25.0 20.0 83 1.9 SSW 9 - 5 - 1014.0 - 0.0
29/04:00am 23.0 25.5 21.0 88 1.3 SSW 9 - 5 - 1014.0 - 0.0
29/03:30am 23.0 25.5 21.0 88 1.3 SSW 9 - 5 - 1014.0 - 0.0
29/03:00am 23.5 25.8 21.4 88 1.4 SW 11 - 6 - 1014.0 1013.6 0.0
29/02:30am 24.0 27.0 22.0 88 1.3 SW 9 - 5 - 1014.0 - 0.0
29/02:00am 24.0 26.5 21.0 83 2.0 SW 9 - 5 - 1014.0 - 0.0
29/01:30am 24.0 26.5 21.0 83 2.0 SW 9 - 5 - 1014.0 - 0.0
29/01:00am 24.0 27.0 22.0 88 1.3 SSW 9 - 5 - 1015.0 - 0.0
29/12:30am 24.0 27.4 22.0 88 1.3 SSW 7 - 4 - 1015.0 - 0.0
29/12:00am 24.1 27.4 21.8 87 1.5 SW 7 - 4 - 1015.0 1015.2 0.0
 
Date/Time
WST
Temp
°C
App
Temp
°C
Dew
Point
Rel
Hum
%
Delta-T
°C
Wind Press
QNH
hPa
Press
MSL
hPa
Rain
since 9 am
mm
Dir
 
Spd
km/h
Gust
km/h
Spd
kts
Gust
kts
28/11:30pm 25.0 28.4 22.0 83 2.0 WSW 7 - 4 - 1015.0 - 0.0
28/11:00pm 25.0 28.6 22.0 83 2.0 WSW 6 - 3 - 1015.0 - 0.0
28/10:30pm 25.0 28.4 22.0 83 2.0 WSW 7 - 4 - 1016.0 - 0.0
28/10:00pm 24.0 27.1 21.0 83 2.0 W 6 - 3 - 1016.0 - 0.0
28/09:44pm 25.0 28.6 22.0 83 2.0 W 6 - 3 - 1016.0 - 0.0
28/09:30pm 25.0 28.4 22.0 83 2.0 W 7 - 4 - 1016.0 - 0.0
28/09:25pm 25.0 27.9 21.0 78 2.6 WSW 7 - 4 - 1016.0 - 0.0
28/09:00pm 25.1 27.7 21.2 79 2.6 W 9 - 5 - 1016.0 1015.7 0.0
28/08:30pm 25.0 27.9 21.0 78 2.6 W 7 - 4 - 1016.0 - 0.0
28/08:00pm 25.0 27.9 21.0 78 2.6 W 7 - 4 - 1015.0 - 0.0
28/07:30pm 25.0 27.9 21.0 78 2.6 W 7 - 4 - 1015.0 - 0.0
28/07:00pm 25.0 27.9 21.0 78 2.6 NW 7 - 4 - 1014.0 - 0.0
28/06:30pm 25.0 27.9 21.0 78 2.6 NW 7 - 4 - 1014.0 - 0.0
28/06:00pm 25.7 28.1 20.9 75 3.2 NW 9 - 5 - 1014.0 1013.6 0.0
28/05:30pm 26.0 28.0 20.0 69 3.9 NW 9 - 5 - 1013.0 - 0.0
28/05:00pm 27.0 28.2 20.0 65 4.6 NNW 13 - 7 - 1013.0 - 0.0
28/04:30pm 28.0 29.2 20.0 61 5.2 NNW 13 - 7 - 1013.0 - 0.0
28/04:00pm 28.0 28.8 19.0 58 5.8 NNW 13 - 7 - 1012.0 - 0.0
28/03:30pm 29.0 29.8 19.0 54 6.5 NNW 13 - 7 - 1012.0 - 0.0
28/03:00pm 28.9 29.9 19.5 57 6.1 NNW 13 - 7 - 1012.0 1012.3 0.0
28/02:30pm 29.0 29.0 19.0 54 6.5 NNW 17 - 9 - 1012.0 - 0.0
28/02:00pm 29.0 29.0 19.0 54 6.5 NNW 17 - 9 - 1013.0 - 0.0
28/01:30pm 29.0 28.6 18.0 51 7.0 N 17 - 9 - 1013.0 - 0.0
28/01:00pm 29.0 27.6 18.0 51 7.0 N 22 - 12 - 1014.0 - 0.0
28/12:30pm 29.0 29.0 19.0 54 6.5 N 17 - 9 - 1014.0 - 0.0
28/12:00pm 28.3 27.8 18.7 56 6.2 NNW 19 - 10 - 1015.0 1014.7 0.0
28/11:30am 29.0 29.3 18.0 51 7.0 N 13 - 7 - 1015.0 - 0.0
28/11:00am 30.0 30.3 18.0 48 7.7 N 13 - 7 - 1015.0 - 0.0
28/10:30am 29.0 30.2 19.0 54 6.5 NNW 11 - 6 - 1016.0 - 0.0
28/10:02am 28.0 29.5 19.0 58 5.8 NNW 9 - 5 - 1016.0 - 0.0
28/10:00am 28.0 29.5 19.0 58 5.8 NNW 9 - 5 - 1016.0 - 0.0
28/09:45am 28.0 29.5 19.0 58 5.8 WNW 9 - 5 - 1016.0 - 0.0
28/09:30am 29.0 30.5 19.0 54 6.5 WNW 9 - 5 - 1016.0 - 0.0
28/09:00am 26.9 28.7 18.7 60 5.2 NW 7 - 4 - 1016.0 1016.4 0.0
28/08:30am 27.0 28.5 19.0 61 5.1 WNW 9 - 5 - 1016.0 - 0.0
28/08:00am 27.0 30.1 21.0 69 4.0 WSW 6 - 3 - 1016.0 - 0.0
28/07:30am 26.0 29.6 22.0 78 2.7 WNW 6 - 3 - 1016.0 - 0.0
28/07:00am 25.0 29.3 22.0 83 2.0 SSW 2 - 1 - 1015.0 - 0.0
28/06:30am 22.0 26.2 21.0 94 0.7 CALM 0 - 0 - 1015.0 - 0.0
28/06:00am 20.8 24.8 20.5 98 0.2 CALM 0 - 0 - 1015.0 1014.9 0.0
28/05:30am 21.0 24.7 20.0 94 0.6 CALM 0 - 0 - 1015.0 - 0.0
28/05:00am 21.0 24.7 20.0 94 0.6 CALM 0 - 0 - 1014.0 - 0.0
28/04:30am 21.0 24.7 20.0 94 0.6 CALM 0 - 0 - 1014.0 - 0.0
28/04:00am 21.0 24.7 20.0 94 0.6 CALM 0 - 0 - 1014.0 - 0.0
28/03:30am 21.0 24.0 20.0 94 0.6 S 4 - 2 - 1014.0 - 0.0
28/03:00am 21.1 24.1 20.1 94 0.6 S 4 - 2 - 1014.0 1013.6 0.0
28/02:32am 22.0 25.4 22.0 100 0.0 SSW 7 - 4 - 1014.0 - 0.0
28/02:30am 22.0 25.4 22.0 100 0.0 SSW 7 - 4 - 1014.0 - 0.0
28/02:12am 22.0 26.2 21.0 94 0.7 CALM 0 - 0 - 1014.0 - 0.0
28/02:00am 22.0 26.2 21.0 94 0.7 CALM 0 - 0 - 1014.0 - 0.0
28/01:30am 22.0 26.2 21.0 94 0.7 CALM 0 - 0 - 1014.0 - 0.0
28/01:00am 22.0 26.2 21.0 94 0.7 CALM 0 - 0 - 1014.0 - 0.0
28/12:30am 22.0 26.2 21.0 94 0.7 CALM 0 - 0 - 1014.0 - 0.0
28/12:03am 24.0 27.6 22.0 88 1.3 SW 6 - 3 - 1014.0 - 0.0
28/12:00am 23.6 26.7 21.5 88 1.4 SW 7 - 4 - 1014.0 1014.2 0.0
 
Date/Time
WST
Temp
°C
App
Temp
°C
Dew
Point
Rel
Hum
%
Delta-T
°C
Wind Press
QNH
hPa
Press
MSL
hPa
Rain
since 9 am
mm
Dir
 
Spd
km/h
Gust
km/h
Spd
kts
Gust
kts
27/11:30pm 24.0 27.4 22.0 88 1.3 SW 7 - 4 - 1015.0 - 0.0
27/11:00pm 24.0 27.4 22.0 88 1.3 SW 7 - 4 - 1015.0 - 0.0
27/10:30pm 23.0 26.8 21.0 88 1.3 WSW 2 - 1 - 1015.0 - 0.0
27/10:00pm 23.0 26.7 20.0 83 1.9 CALM 0 - 0 - 1015.0 - 0.0
27/09:30pm 24.0 27.1 21.0 83 2.0 WNW 6 - 3 - 1015.0 - 0.0
27/09:00pm 23.8 26.7 20.7 83 2.0 WNW 6 - 3 - 1015.0 1015.2 0.0
27/08:30pm 24.0 27.1 21.0 83 2.0 WNW 6 - 3 - 1015.0 - 0.0
27/08:00pm 24.0 27.7 20.0 78 2.6 CALM 0 - 0 - 1015.0 - 0.0
27/07:30pm 25.0 28.1 21.0 78 2.6 WNW 6 - 3 - 1015.0 - 0.0
27/07:00pm 25.0 27.4 20.0 74 3.2 NW 7 - 4 - 1014.0 - 0.0
27/06:30pm 26.0 28.6 20.0 69 3.9 NW 6 - 3 - 1014.0 - 0.0
27/06:00pm 25.9 28.0 20.2 71 3.7 N 9 - 5 - 1014.0 1013.5 0.0
27/05:30pm 26.0 26.9 20.0 69 3.9 N 15 - 8 - 1013.0 - 0.0
27/05:00pm 27.0 28.2 20.0 65 4.6 N 13 - 7 - 1013.0 - 0.0
27/04:30pm 28.0 28.9 20.0 61 5.2 N 15 - 8 - 1013.0 - 0.0
27/04:00pm 28.0 28.1 20.0 61 5.2 N 19 - 10 - 1013.0 - 0.0
27/03:30pm 29.0 28.6 19.0 54 6.5 N 19 - 10 - 1012.0 - 0.0
27/03:00pm 29.8 29.6 18.6 51 7.2 NNW 17 - 9 - 1012.0 1012.1 0.0
27/02:30pm 30.0 29.2 18.0 48 7.7 N 19 - 10 - 1012.0 - 0.0
27/02:00pm 30.0 28.8 17.0 45 8.2 NNW 19 - 10 - 1012.0 - 0.0
27/01:30pm 30.0 29.6 18.0 48 7.7 NNW 17 - 9 - 1013.0 - 0.0
27/01:00pm 31.0 30.6 18.0 45 8.4 NNW 17 - 9 - 1013.0 - 0.0
27/12:30pm 32.0 32.0 18.0 43 9.0 NNW 15 - 8 - 1013.0 - 0.0
27/12:00pm 30.8 30.6 17.5 45 8.5 N 15 - 8 - 1013.0 1013.4 0.0
27/11:30am 31.0 31.3 18.0 45 8.4 N 13 - 7 - 1014.0 - 0.0
27/11:00am 30.0 31.5 19.0 51 7.1 NNW 9 - 5 - 1014.0 - 0.0
27/10:30am 29.0 30.9 19.0 54 6.5 WSW 7 - 4 - 1015.0 - 0.0
27/10:00am 29.0 29.8 19.0 54 6.5 W 13 - 7 - 1015.0 - 0.0
27/09:30am 30.0 31.9 19.0 51 7.1 SW 7 - 4 - 1015.0 - 0.0
27/09:00am 28.8 30.7 18.9 55 6.4 SW 7 - 4 - 1016.0 1015.6 0.0
27/08:30am 29.0 31.1 19.0 54 6.5 NNW 6 - 3 - 1016.0 - 0.0
27/08:00am 27.0 30.1 21.0 69 4.0 SSW 6 - 3 - 1015.0 - 0.0

Other Formats:

Comma delimited format used in spreadsheet applications
http://www.bom.gov.au/fwo/IDW60801/IDW60801.95101.axf

JavaScript Object Notation format (JSON) in row-major order
http://www.bom.gov.au/fwo/IDW60801/IDW60801.95101.json